Tuesday, September 30, 2014
18:00 UTC
  |  Log In   |  Register Free
Airport Search:

Vidalia Regional Airport
(KVDI)

Vidalia Regional Airport Diagram
No Airport Diagram Available

FAA data valid effective September 18, 2014 - November 13, 2014 (unless otherwise noted).

 
 
 
 
 
 
 
 
 
 
 
 
 
 

Current Aviation Weather for Vidalia Regional Airport (KVDI)

The most recent METAR observation for KVDI was updated at: 1717
METAR Summary (Translated METAR)
KVDI
301655Z AUTO 02004KT 10SM SCT021 BKN035 25/20 A2992 RMK AO2
KAZE
301655Z AUTO 01004KT 10SM SCT020 SCT029 OVC035 25/21 A2991 RMK AO2 T02520206
(23.2 nm SW from KVDI)
KSBO
301655Z AUTO 01003KT 10SM BKN027 BKN033 26/20 A2993 RMK AO2
(25 nm NE from KVDI)
TAF
No TAF information found within 50 nm of KVDI
  Airport Weather Conditions for KVDI

 Current Weather at VDI
77° F
Mostly Cloudy
North winds at 4.6 mph
VDI NOAA Radar

Pressure: 29.92 in
Humidity: 74%
Wind: North at 4.6 MPH (4 KT)
Dew Point: 68.0°F
Visibility: 10.00 mi


Airport Weather Forecast for KVDI

Translated METAR and TAF for KVDI
Translated METAR for KVDI (1754 UTC 30 September 2014)
found at http://aviationweather.gov/adds/metars/
 
METAR text: KVDI 301735Z AUTO 03007KT 7SM SCT024 OVC030 25/20 A2991 RMK AO2
Conditions at: KVDI (VIDALIA MUNI , GA, US) observed 1735 UTC 30 September 2014
Temperature: 25.0°C (77°F)
Dewpoint: 20.0°C (68°F) [RH = 74%]
Pressure (altimeter): 29.91 inches Hg (1013.0 mb)
Winds: from the NNE (30 degrees) at 8 MPH (7 knots; 3.6 m/s)
Visibility: 7 miles (11 km)
Ceiling: 3000 feet AGL
Clouds: scattered clouds at 2400 feet AGL
overcast cloud deck at 3000 feet AGL
Weather: automated observation with no human augmentation;
there may or may not be significant weather present at this time
Translated TAF for KVDI

There is no translated TAF available for this airport

Find All Airport Services Find A Hotel Find A Rental Car Find A Golf Course Find A Restaurant $100 Hamburger



FBO's on the Field
FBO Company Facility Photos Services Transportation Aviation Fuel Prices: Prices include tax
Catering Weather Repair Courtesy Rental Type 100LL JetA JetA+ MOGAS 8087
 
Vidalia Regional Airport

This FBO has not yet been rated
FS:Phillips66
Last Updated: Sep-29
Login to update fuel prices
SS:
Contact Vidalia Regional AirportMore FBO Information
 
Add another FBO Facility Photos Catering Weather Repair Courtesy Rental Type 100LL JetA JetA+ MOGAS 8087
Services Transportation Aviation Fuel Prices: Prices include tax


model-print
model-print
model-print
model-print